2017/12/12 17:30 VVNB 121730Z 06004KT 3500 -DZ BR SCT004 BKN015 15/14 Q1016 NOSIG
2017/12/12 17:30 VVDN 121730Z 32003KT 5000 BR FEW013 BKN060 22/20 Q1014 NOSIG
2017/12/12 17:30 VVTS 121730Z 17005KT 100V210 8000 SCT015 FEW017CB BKN050 26/24 Q1011 NOSIG
2017/12/12 17:30 VVPB 121730Z 27003KT 3500 BR FEW010 SCT013 BKN050 21/21 Q1015 NOSIG

Powered by MinhViet JSC.